Terminal Aerodrome Forecast
Issued by NWS

Current Version | Previous Version | Graphics & Text | Print | Product List | Glossary On
Versions: 1 2 3 4 5 6 7 8 9 10 11 12 13 14 15 16 17 18
000
FTUS41 KPBZ 232009 AAA
TAFHLG
TAF AMD
KHLG 232009Z 2320/2418 24012G18KT P6SM BKN040
     FM240000 23010KT P6SM BKN040
     FM241000 18003KT P6SM SCT040
     FM241700 19012G20KT P6SM SCT040=

USA.gov is the U.S. government's official web portal to all federal, state and local government web resources and services.